New Paris, Pennsylvania
Current Conditions -  °F | °C
As of 2:31 PM on Sunday 21 Dec 2014 (Local Time) from KJST Reporting Station
Scattered Clouds Scattered Clouds  
Wind Chill: 30°   Ceiling: Unl
Heat Index: 30°   Visibility: 10mi
Dew Point: 20°   Wind: 3mph
Humidity: 66%   Direction: 350°N
Pressure: 30.17"   Gusts: NA
Location:  40.11°N, 78.64°W
Report Text: KJST 211931Z AUTO 35003KT 10SM SCT018 M01/M07 A3017 RMK AO2 T10111067
Loading
Personal Weather Stations






























Interactive Weather Map New forecast layout! Learn more

10-Day Weather Forecast

Advertisements
Track Severe Weather on mobile